Time;durP1;ratioP1;P1;durP2;ratioP2;P2;SDS_P1;SDS_P2;PMS_P1;PMS_P2;Temp;Humidity;BMP_temperature;BMP_pressure;BME280_temperature;BME280_humidity;BME280_pressure;Samples;Min_cycle;Max_cycle;Signal;HPM_P1;HPM_P2
2021/03/06 00:00:45;;;;;;;;;;;;;;;22.02;31.00;103229.81;3117573;27;115518;-57
2021/03/06 00:02:18;;;;;;;;;;;;;;;22.03;30.95;103232.34;3107969;28;115129;-58
2021/03/06 00:03:51;;;;;;;;;;;;;;;22.03;31.13;103226.72;3116659;27;113944;-58
2021/03/06 00:05:24;;;;;;;;;;;;;;;22.04;31.07;103233.22;3119830;27;114087;-58
2021/03/06 00:06:56;;;;;;;;;;;;;;;22.05;30.80;103223.66;3121535;27;115141;-57
2021/03/06 00:08:27;;;;;;;;;;;;;;;22.03;31.16;103234.34;3121969;27;115349;-57
2021/03/06 00:09:59;;;;;;;;;;;;;;;22.04;31.11;103231.25;3119310;27;113897;-58
2021/03/06 00:11:31;;;;;;;;;;;;;;;22.05;31.26;103241.41;3120291;27;116281;-57
2021/03/06 00:13:04;;;;;;;;;;;;;;;22.05;31.08;103241.41;3103972;28;115305;-58
2021/03/06 00:14:35;;;;;;;;;;;;;;;22.05;31.33;103241.41;3120318;27;115305;-57
2021/03/06 00:16:07;;;;;;;;;;;;;;;22.06;31.15;103245.94;3120660;27;115382;-57
2021/03/06 00:17:38;;;;;;;;;;;;;;;22.06;31.27;103237.47;3120834;27;117084;-58
2021/03/06 00:19:10;;;;;;;;;;;;;;;22.07;31.12;103239.19;3121775;27;116791;-58
2021/03/06 00:20:42;;;;;;;;;;;;;;;22.07;31.26;103246.78;3107880;28;115710;-58
2021/03/06 00:22:14;;;;;;;;;;;;;;;22.06;31.10;103242.25;3114630;27;115843;-58
2021/03/06 00:23:46;;;;;;;;;;;;;;;22.05;31.28;103237.72;3120286;27;115306;-58
2021/03/06 00:25:18;;;;;;;;;;;;;;;22.05;31.00;103237.72;3121129;27;116246;-57
2021/03/06 00:26:50;;;;;;;;;;;;;;;22.05;31.30;103234.91;3121917;27;115657;-57
2021/03/06 00:28:21;;;;;;;;;;;;;;;22.05;31.16;103229.28;3106951;28;116106;-58
2021/03/06 00:29:53;;;;;;;;;;;;;;;22.04;31.04;103239.69;3117765;27;115047;-57
2021/03/06 00:31:24;;;;;;;;;;;;;;;22.04;31.05;103236.88;3121735;27;114872;-57
2021/03/06 00:32:57;;;;;;;;;;;;;;;22.04;31.49;103236.03;3118593;27;115663;-58
2021/03/06 00:34:28;;;;;;;;;;;;;;;22.03;31.27;103235.16;3120803;27;116025;-57
2021/03/06 00:36:00;;;;;;;;;;;;;;;22.01;31.24;103240.22;3125359;27;115994;-57
2021/03/06 00:37:31;;;;;;;;;;;;;;;22.01;31.08;103245.88;3119250;27;113780;-58
2021/03/06 00:39:04;;;;;;;;;;;;;;;22.00;31.20;103235.72;3075967;28;914234;-58
2021/03/06 00:40:36;;;;;;;;;;;;;;;21.99;31.16;103236.81;3107943;28;114361;-58
2021/03/06 00:42:08;;;;;;;;;;;;;;;21.99;31.27;103238.78;3109053;27;114373;-58
2021/03/06 00:43:39;;;;;;;;;;;;;;;21.97;31.30;103233.44;3110272;28;114231;-58
2021/03/06 00:45:11;;;;;;;;;;;;;;;21.96;31.42;103240.16;3109313;28;114632;-57
2021/03/06 00:46:43;;;;;;;;;;;;;;;21.95;31.44;103231.97;3109810;28;113705;-58
2021/03/06 00:48:14;;;;;;;;;;;;;;;21.94;31.30;103235.94;3110708;27;113798;-59
2021/03/06 00:49:46;;;;;;;;;;;;;;;21.93;31.61;103228.59;3110559;27;113781;-57
2021/03/06 00:51:17;;;;;;;;;;;;;;;21.90;31.52;103226.25;3108587;28;113972;-58
2021/03/06 00:52:51;;;;;;;;;;;;;;;21.91;31.60;103236.41;3107215;28;113768;-57
2021/03/06 00:54:22;;;;;;;;;;;;;;;21.89;31.57;103230.19;3110046;28;114006;-57
2021/03/06 00:55:55;;;;;;;;;;;;;;;21.87;31.38;103226.78;3106625;28;113926;-57
2021/03/06 00:57:27;;;;;;;;;;;;;;;21.85;31.63;103227.03;3112283;28;114091;-57
2021/03/06 00:58:59;;;;;;;;;;;;;;;21.85;31.35;103223.41;3107877;28;114192;-57
2021/03/06 01:00:32;;;;;;;;;;;;;;;21.84;31.48;103227.31;3109547;27;115631;-57
2021/03/06 01:02:04;;;;;;;;;;;;;;;21.82;31.47;103226.72;3108114;27;115392;-57
2021/03/06 01:03:39;;;;;;;;;;;;;;;21.81;31.33;103228.66;3107505;27;115277;-57
2021/03/06 01:05:11;;;;;;;;;;;;;;;21.79;31.79;103225.28;3108776;28;115176;-58
2021/03/06 01:06:42;;;;;;;;;;;;;;;21.78;31.57;103225.53;3102418;28;114773;-57
2021/03/06 01:08:14;;;;;;;;;;;;;;;21.78;31.73;103225.53;3109123;28;114314;-58
2021/03/06 01:09:46;;;;;;;;;;;;;;;21.75;31.67;103224.09;3102534;28;115627;-57
2021/03/06 01:11:20;;;;;;;;;;;;;;;21.73;31.59;103226.31;3106753;28;115139;-58
2021/03/06 01:12:52;;;;;;;;;;;;;;;21.71;31.53;103220.94;3107129;28;115152;-57
2021/03/06 01:14:24;;;;;;;;;;;;;;;21.70;31.82;103227.72;3108651;28;115652;-58
2021/03/06 01:15:57;;;;;;;;;;;;;;;21.69;31.82;103219.50;3107654;28;115991;-57
2021/03/06 01:17:30;;;;;;;;;;;;;;;21.67;31.90;103225.41;3107667;28;115047;-57
2021/03/06 01:19:02;;;;;;;;;;;;;;;21.66;32.03;103217.22;3111174;28;115807;-57
2021/03/06 01:20:34;;;;;;;;;;;;;;;21.64;31.88;103220.28;3109659;27;117331;-58
2021/03/06 01:22:06;;;;;;;;;;;;;;;21.63;32.01;103227.03;3107277;28;114396;-57
2021/03/06 01:23:41;;;;;;;;;;;;;;;21.61;31.66;103217.16;3108734;28;115747;-57
2021/03/06 01:25:14;;;;;;;;;;;;;;;21.60;31.86;103221.94;3109405;27;116816;-58
2021/03/06 01:26:48;;;;;;;;;;;;;;;21.57;31.85;103213.16;3107888;28;115835;-57
2021/03/06 01:28:21;;;;;;;;;;;;;;;21.56;32.11;103222.72;3103977;28;116476;-56
2021/03/06 01:29:52;;;;;;;;;;;;;;;21.55;32.08;103206.94;3108704;28;115023;-56
2021/03/06 01:31:24;;;;;;;;;;;;;;;21.53;32.13;103206.38;3107694;27;114888;-57
2021/03/06 01:32:56;;;;;;;;;;;;;;;21.51;32.12;103212.25;3102851;28;114344;-57
2021/03/06 01:34:28;;;;;;;;;;;;;;;21.48;32.22;103212.78;3101144;28;115056;-58
2021/03/06 01:35:59;;;;;;;;;;;;;;;21.47;32.28;103208.25;3112105;27;115827;-57
2021/03/06 01:37:30;;;;;;;;;;;;;;;21.44;32.38;103213.56;3111790;27;116076;-57
2021/03/06 01:39:02;;;;;;;;;;;;;;;21.44;32.03;103213.56;3117057;27;115336;-57
2021/03/06 01:40:35;;;;;;;;;;;;;;;21.41;32.26;103206.47;3103900;28;116484;-58
2021/03/06 01:42:07;;;;;;;;;;;;;;;21.35;32.42;103215.94;3119703;27;115909;-58
2021/03/06 01:43:38;;;;;;;;;;;;;;;21.38;32.14;103212.63;3121007;27;113703;-57
2021/03/06 01:45:10;;;;;;;;;;;;;;;21.36;32.34;103203.56;3121872;27;113824;-58
2021/03/06 01:46:41;;;;;;;;;;;;;;;21.34;32.30;103213.41;3108728;28;113945;-57
2021/03/06 01:48:14;;;;;;;;;;;;;;;21.32;32.54;103213.66;3106836;28;113835;-58
2021/03/06 01:49:45;;;;;;;;;;;;;;;21.30;32.29;103211.09;3105465;28;114302;-57
2021/03/06 01:51:17;;;;;;;;;;;;;;;21.29;32.56;103205.75;3116333;27;114354;-57
2021/03/06 01:52:49;;;;;;;;;;;;;;;21.28;32.56;103209.66;3123838;27;114127;-57
2021/03/06 01:54:25;;;;;;;;;;;;;;;21.26;32.32;103204.28;3122476;27;113967;-58
2021/03/06 01:55:56;;;;;;;;;;;;;;;21.23;32.43;103198.31;3124263;27;113875;-58
2021/03/06 01:57:28;;;;;;;;;;;;;;;21.21;32.93;103200.56;3109422;28;113785;-58
2021/03/06 01:59:02;;;;;;;;;;;;;;;21.18;32.57;103195.44;3104282;28;114310;-57
2021/03/06 02:00:33;;;;;;;;;;;;;;;21.18;32.76;103193.47;3120581;27;113946;-58
2021/03/06 02:02:05;;;;;;;;;;;;;;;21.15;32.60;103195.97;3110383;28;114227;-57
2021/03/06 02:03:38;;;;;;;;;;;;;;;21.15;32.82;103201.59;3122668;27;113919;-57
2021/03/06 02:05:11;;;;;;;;;;;;;;;21.13;32.66;103198.16;3106308;28;115160;-57
2021/03/06 02:06:44;;;;;;;;;;;;;;;21.11;32.83;103203.19;3117354;27;115764;-57
2021/03/06 02:08:15;;;;;;;;;;;;;;;21.10;33.04;103195.84;3124521;27;115086;-58
2021/03/06 02:09:47;;;;;;;;;;;;;;;21.07;32.85;103202.00;3123605;27;115909;-57
2021/03/06 02:11:22;;;;;;;;;;;;;;;21.07;32.91;103200.03;3121969;27;115055;-57
2021/03/06 02:12:54;;;;;;;;;;;;;;;21.02;32.78;103194.34;3123860;27;114039;-57
2021/03/06 02:14:29;;;;;;;;;;;;;;;21.03;32.94;103195.19;3120750;27;115352;-57
2021/03/06 02:16:04;;;;;;;;;;;;;;;21.00;32.82;103198.50;3124091;27;115054;-57
2021/03/06 02:17:39;;;;;;;;;;;;;;;20.98;32.94;103189.47;3122944;27;115327;-57
2021/03/06 02:19:13;;;;;;;;;;;;;;;20.95;32.99;103196.44;3123794;27;113924;-57
2021/03/06 02:20:49;;;;;;;;;;;;;;;20.95;33.26;103195.59;3115146;27;115088;-58
2021/03/06 02:22:25;;;;;;;;;;;;;;;20.93;32.95;103195.88;3110110;28;115205;-57
2021/03/06 02:24:06;;;;;;;;;;;;;;;20.91;32.88;103203.69;3120328;27;115193;-57
2021/03/06 02:25:41;;;;;;;;;;;;;;;20.88;33.10;103194.94;3124295;27;114917;-57
2021/03/06 02:27:15;;;;;;;;;;;;;;;20.86;33.34;103198.00;3121364;27;115853;-56
2021/03/06 02:28:47;;;;;;;;;;;;;;;20.84;33.21;103197.41;3117767;27;116003;-58
2021/03/06 02:30:20;;;;;;;;;;;;;;;20.83;33.24;103195.69;3118820;27;115699;-58
2021/03/06 02:31:54;;;;;;;;;;;;;;;20.80;33.21;103193.41;3118988;27;114885;-58
2021/03/06 02:33:29;;;;;;;;;;;;;;;20.77;33.14;103194.75;3098447;28;116001;-58
2021/03/06 02:35:05;;;;;;;;;;;;;;;20.76;33.10;103190.25;3113207;27;115936;-57
2021/03/06 02:36:39;;;;;;;;;;;;;;;20.74;33.61;103195.28;3102162;27;115454;-58
2021/03/06 02:38:14;;;;;;;;;;;;;;;20.72;33.21;103200.28;3100170;28;114563;-57
2021/03/06 02:39:47;;;;;;;;;;;;;;;20.71;33.23;103207.03;3111230;28;115625;-57
2021/03/06 02:41:20;;;;;;;;;;;;;;;20.69;33.38;103206.44;3112232;28;115777;-58
2021/03/06 02:42:52;;;;;;;;;;;;;;;20.68;33.35;103204.72;3108404;27;115890;-57
2021/03/06 02:44:26;;;;;;;;;;;;;;;20.66;33.37;103200.47;3107399;28;115843;-58
2021/03/06 02:45:57;;;;;;;;;;;;;;;20.63;33.55;103207.44;3111055;27;116260;-58
2021/03/06 02:49:06;;;;;;;;;;;;;;;20.61;33.47;103206.84;3103169;28;113825;-58
2021/03/06 02:50:38;;;;;;;;;;;;;;;20.58;33.19;103212.13;3108643;28;113657;-57
2021/03/06 02:52:09;;;;;;;;;;;;;;;20.57;33.47;103214.09;3102736;28;113750;-57
2021/03/06 02:53:40;;;;;;;;;;;;;;;20.56;33.47;103208.72;3103164;28;116054;-58
2021/03/06 02:55:12;;;;;;;;;;;;;;;20.54;33.33;103211.75;3112232;28;114134;-57
2021/03/06 02:56:46;;;;;;;;;;;;;;;20.54;33.47;103211.75;3110655;28;113874;-58
2021/03/06 02:58:18;;;;;;;;;;;;;;;20.52;33.19;103205.56;3107754;28;113795;-58
2021/03/06 02:59:53;;;;;;;;;;;;;;;20.51;33.66;103200.19;3105679;28;113820;-57
2021/03/06 03:01:28;;;;;;;;;;;;;;;20.48;33.67;103204.38;3109998;28;113796;-58
2021/03/06 03:03:09;;;;;;;;;;;;;;;20.49;33.62;103200.44;3102332;28;113842;-57
2021/03/06 03:04:41;;;;;;;;;;;;;;;20.46;33.59;103198.16;3109673;28;114288;-58
2021/03/06 03:06:16;;;;;;;;;;;;;;;20.44;33.58;103200.38;3111647;28;113898;-57
2021/03/06 03:07:51;;;;;;;;;;;;;;;20.44;33.30;103193.91;3111427;27;113679;-57
2021/03/06 03:09:25;;;;;;;;;;;;;;;20.42;33.67;103188.53;3094909;28;113936;-57
2021/03/06 03:11:01;;;;;;;;;;;;;;;20.40;33.83;103188.78;3110374;28;113928;-57
2021/03/06 03:12:36;;;;;;;;;;;;;;;20.38;33.50;103190.16;3106173;27;115286;-58
2021/03/06 03:14:10;;;;;;;;;;;;;;;20.38;33.57;103187.34;3106800;27;115202;-57
2021/03/06 03:15:44;;;;;;;;;;;;;;;20.36;33.72;103187.56;3100462;28;115139;-58
2021/03/06 03:17:22;;;;;;;;;;;;;;;20.33;33.85;103190.03;3111213;28;115114;-58
2021/03/06 03:18:57;;;;;;;;;;;;;;;20.32;33.66;103177.97;3093888;28;115648;-58
2021/03/06 03:20:31;;;;;;;;;;;;;;;20.31;33.86;103179.06;3091268;28;115857;-58
2021/03/06 03:22:05;;;;;;;;;;;;;;;20.30;33.79;103180.19;3106337;28;114188;-58
2021/03/06 03:23:39;;;;;;;;;;;;;;;20.26;33.80;103184.53;3110669;28;115319;-58
2021/03/06 03:25:13;;;;;;;;;;;;;;;20.26;33.84;103183.72;3111717;28;115830;-58
2021/03/06 03:26:47;;;;;;;;;;;;;;;20.25;33.70;103179.19;3110061;28;115286;-57
2021/03/06 03:28:20;;;;;;;;;;;;;;;20.22;33.84;103180.53;3110011;28;114245;-57
2021/03/06 03:29:52;;;;;;;;;;;;;;;20.22;33.85;103177.72;3100349;28;115219;-58
2021/03/06 03:31:25;;;;;;;;;;;;;;;20.22;33.67;103176.88;3111225;28;115190;-57
2021/03/06 03:33:00;;;;;;;;;;;;;;;20.19;33.82;103181.06;3112870;28;115464;-57
2021/03/06 03:34:33;;;;;;;;;;;;;;;20.18;33.65;103181.28;3109848;28;116200;-58
2021/03/06 03:36:05;;;;;;;;;;;;;;;20.16;33.97;103186.31;3108505;28;116526;-58
2021/03/06 03:37:37;;;;;;;;;;;;;;;20.15;33.82;103187.41;3097715;28;115829;-58
2021/03/06 03:39:09;;;;;;;;;;;;;;;20.15;33.75;103187.41;3101201;28;116444;-57
2021/03/06 03:40:41;;;;;;;;;;;;;;;20.12;33.91;103196.34;3104779;28;116481;-58
2021/03/06 03:42:13;;;;;;;;;;;;;;;20.12;33.89;103191.59;3109692;28;115909;-57
2021/03/06 03:43:44;;;;;;;;;;;;;;;20.11;33.89;103195.50;3105059;28;115857;-57
2021/03/06 03:45:17;;;;;;;;;;;;;;;20.09;33.77;103189.28;3102890;28;116063;-57
2021/03/06 03:46:49;;;;;;;;;;;;;;;20.07;33.98;103193.44;3105988;28;116812;-58
2021/03/06 03:48:21;;;;;;;;;;;;;;;20.06;33.87;103195.41;3110200;28;115898;-57
2021/03/06 03:49:53;;;;;;;;;;;;;;;20.07;33.96;103204.66;3104064;28;115710;-57
2021/03/06 03:51:25;;;;;;;;;;;;;;;20.05;33.75;103196.50;3093149;28;116326;-57
2021/03/06 03:52:56;;;;;;;;;;;;;;;20.04;33.77;103199.53;3095623;28;116467;-57
2021/03/06 03:54:28;;;;;;;;;;;;;;;20.01;33.81;103192.47;3113663;28;115916;-57
2021/03/06 03:56:00;;;;;;;;;;;;;;;19.99;34.11;103205.91;3106074;28;113966;-58
2021/03/06 03:57:35;;;;;;;;;;;;;;;19.97;34.12;103203.38;3108898;27;114219;-58
2021/03/06 03:59:06;;;;;;;;;;;;;;;19.97;33.94;103202.50;3104301;28;113976;-58
2021/03/06 04:00:38;;;;;;;;;;;;;;;19.96;34.08;103198.84;3101234;28;113961;-58
2021/03/06 04:02:09;;;;;;;;;;;;;;;19.95;34.01;103199.09;3105478;28;113740;-58
2021/03/06 04:03:41;;;;;;;;;;;;;;;19.96;34.03;103201.66;3110745;27;113720;-58
2021/03/06 04:05:12;;;;;;;;;;;;;;;19.94;33.96;103198.22;3106490;27;113906;-58
2021/03/06 04:08:18;;;;;;;;;;;;;;;19.89;34.02;103194.50;3111176;28;113802;-56
2021/03/06 04:09:49;;;;;;;;;;;;;;;19.89;33.88;103189.75;3107896;28;114404;-58
2021/03/06 04:11:23;;;;;;;;;;;;;;;19.87;34.08;103194.72;3110753;28;113728;-57
2021/03/06 04:12:55;;;;;;;;;;;;;;;19.87;33.92;103193.88;3109521;28;113864;-57
2021/03/06 04:14:26;;;;;;;;;;;;;;;19.84;33.96;103191.59;3091911;28;114255;-58
2021/03/06 04:15:57;;;;;;;;;;;;;;;19.84;34.20;103197.19;3108316;28;113825;-57
2021/03/06 04:17:30;;;;;;;;;;;;;;;19.83;33.99;103199.13;3110762;27;114032;-57
2021/03/06 04:19:02;;;;;;;;;;;;;;;19.81;34.05;103195.72;3109849;27;115531;-57
2021/03/06 04:20:34;;;;;;;;;;;;;;;19.82;34.02;103203.03;3107319;28;115516;-57
2021/03/06 04:22:05;;;;;;;;;;;;;;;19.80;34.04;103204.41;3117308;27;114018;-58
2021/03/06 04:23:36;;;;;;;;;;;;;;;19.81;33.98;103195.72;3114842;27;115696;-57
2021/03/06 04:25:08;;;;;;;;;;;;;;;19.77;34.21;103200.13;3109495;28;115226;-57
2021/03/06 04:26:40;;;;;;;;;;;;;;;19.77;34.13;103204.88;3110968;27;115187;-57
2021/03/06 04:28:11;;;;;;;;;;;;;;;19.77;34.02;103197.31;3111531;28;115127;-58
2021/03/06 04:29:42;;;;;;;;;;;;;;;19.74;34.16;103203.44;3110023;28;114922;-57
2021/03/06 04:31:14;;;;;;;;;;;;;;;19.74;34.23;103205.38;3107650;27;115868;-57
2021/03/06 04:32:45;;;;;;;;;;;;;;;19.72;34.31;103205.63;3108602;27;115313;-57
2021/03/06 04:34:17;;;;;;;;;;;;;;;19.73;34.27;103204.53;3102880;28;115253;-59
2021/03/06 04:35:48;;;;;;;;;;;;;;;19.71;34.18;103203.09;3110743;27;114302;-57
2021/03/06 04:37:20;;;;;;;;;;;;;;;19.68;34.28;103210.03;3113315;28;115141;-58
2021/03/06 04:38:52;;;;;;;;;;;;;;;19.67;34.26;103199.91;3105701;28;115705;-57
2021/03/06 04:40:23;;;;;;;;;;;;;;;19.65;34.36;103210.53;3121401;27;115676;-57
2021/03/06 04:41:56;;;;;;;;;;;;;;;19.66;34.26;103211.38;3123327;27;116035;-57
2021/03/06 04:43:27;;;;;;;;;;;;;;;19.64;34.42;103216.38;3121921;27;115802;-57
2021/03/06 04:44:59;;;;;;;;;;;;;;;19.65;34.28;103218.09;3121269;27;115847;-57
2021/03/06 04:46:32;;;;;;;;;;;;;;;19.62;34.43;103212.97;3121820;27;115732;-58
2021/03/06 04:48:04;;;;;;;;;;;;;;;19.58;34.30;103218.22;3097121;28;115921;-58
2021/03/06 04:49:38;;;;;;;;;;;;;;;19.61;34.21;103216.88;3094889;28;115761;-58
2021/03/06 04:51:09;;;;;;;;;;;;;;;19.59;34.36;103222.72;3120248;27;115983;-58
2021/03/06 04:52:41;;;;;;;;;;;;;;;19.58;34.31;103225.81;3109465;28;115938;-57
2021/03/06 04:54:13;;;;;;;;;;;;;;;19.58;34.45;103223.81;3108799;28;114762;-57
2021/03/06 04:55:44;;;;;;;;;;;;;;;19.56;34.18;103231.66;3097524;28;115737;-58
2021/03/06 04:57:16;;;;;;;;;;;;;;;19.55;34.20;103229.94;3114406;27;115991;-58
2021/03/06 04:58:48;;;;;;;;;;;;;;;19.53;34.40;103224.56;3121101;27;115280;-57
2021/03/06 05:00:20;;;;;;;;;;;;;;;19.52;34.27;103230.44;3125329;27;115863;-57
2021/03/06 05:01:53;;;;;;;;;;;;;;;19.50;34.42;103227.88;3109323;28;113835;-58
2021/03/06 05:03:25;;;;;;;;;;;;;;;19.51;34.25;103229.56;3118932;27;113860;-58
2021/03/06 05:04:58;;;;;;;;;;;;;;;19.49;34.28;103230.91;3114510;27;113750;-58
2021/03/06 05:06:29;;;;;;;;;;;;;;;19.48;34.31;103229.22;3098078;28;113812;-57
2021/03/06 05:08:01;;;;;;;;;;;;;;;19.45;34.52;103233.34;3116879;27;113760;-57
2021/03/06 05:09:33;;;;;;;;;;;;;;;19.45;34.43;103230.56;3098763;28;114126;-58
2021/03/06 05:11:04;;;;;;;;;;;;;;;19.45;34.58;103230.56;3116709;27;113695;-57
2021/03/06 05:12:36;;;;;;;;;;;;;;;19.43;34.46;103234.69;3125074;27;114010;-57
2021/03/06 05:14:07;;;;;;;;;;;;;;;19.43;34.50;103229.06;3122006;27;113795;-58
2021/03/06 05:15:38;;;;;;;;;;;;;;;19.43;34.45;103234.69;3110692;28;114023;-57
2021/03/06 05:17:10;;;;;;;;;;;;;;;19.40;34.54;103230.41;3107257;28;113887;-58
2021/03/06 05:18:43;;;;;;;;;;;;;;;19.41;34.60;103228.44;3119698;27;113989;-57
2021/03/06 05:20:14;;;;;;;;;;;;;;;19.40;34.57;103229.53;3123750;27;114228;-57
2021/03/06 05:21:45;;;;;;;;;;;;;;;19.38;34.41;103227.00;3126196;27;114010;-58
2021/03/06 05:23:18;;;;;;;;;;;;;;;19.37;34.37;103216.88;3102302;28;114155;-57
2021/03/06 05:24:49;;;;;;;;;;;;;;;19.36;34.49;103217.97;3116864;27;114129;-58
2021/03/06 05:26:34;;;;;;;;;;;;;;;19.35;34.41;103224.66;3124795;27;115620;-58
2021/03/06 05:28:07;;;;;;;;;;;;;;;19.34;34.56;103227.75;3120643;27;115854;-57
2021/03/06 05:29:39;;;;;;;;;;;;;;;19.33;34.56;103218.47;3098603;28;114992;-58
2021/03/06 05:31:11;;;;;;;;;;;;;;;19.31;34.71;103225.41;3116868;27;114098;-58
2021/03/06 05:32:43;;;;;;;;;;;;;;;19.31;34.76;103233.81;3124444;27;115766;-58
2021/03/06 05:34:15;;;;;;;;;;;;;;;19.30;34.59;103227.38;3115343;27;115862;-57
2021/03/06 05:35:46;;;;;;;;;;;;;;;19.28;34.52;103223.09;3114817;27;115270;-57
2021/03/06 05:37:18;;;;;;;;;;;;;;;19.26;34.65;103226.13;3124908;27;115120;-57
2021/03/06 05:38:49;;;;;;;;;;;;;;;19.26;34.69;103230.91;3114141;27;115262;-57
2021/03/06 05:40:22;;;;;;;;;;;;;;;19.27;34.49;103227.84;3108101;28;115170;-57
2021/03/06 05:41:53;;;;;;;;;;;;;;;19.26;34.60;103219.72;3108941;27;115186;-57
2021/03/06 05:43:25;;;;;;;;;;;;;;;19.26;34.45;103231.75;3116406;27;115790;-58
2021/03/06 05:44:57;;;;;;;;;;;;;;;19.24;34.72;103230.28;3113399;27;115726;-58
2021/03/06 05:46:29;;;;;;;;;;;;;;;19.23;34.79;103237.00;3123224;27;116294;-57
2021/03/06 05:48:02;;;;;;;;;;;;;;;19.21;34.61;103228.00;3110046;28;115889;-57
2021/03/06 05:49:34;;;;;;;;;;;;;;;19.20;34.68;103234.69;3118317;27;115692;-58
2021/03/06 05:51:06;;;;;;;;;;;;;;;19.20;34.58;103240.28;3124826;27;116097;-57
2021/03/06 05:52:39;;;;;;;;;;;;;;;19.18;34.68;103229.31;3111051;28;115838;-57
2021/03/06 05:54:12;;;;;;;;;;;;;;;19.16;34.87;103231.53;3083943;28;114790;-57
2021/03/06 05:55:47;;;;;;;;;;;;;;;19.16;34.74;103230.66;3100853;28;116012;-58
2021/03/06 05:57:19;;;;;;;;;;;;;;;19.16;34.53;103225.06;3110362;28;115614;-58
2021/03/06 05:58:50;;;;;;;;;;;;;;;19.15;34.74;103223.34;3119879;27;115841;-57
2021/03/06 06:00:22;;;;;;;;;;;;;;;19.12;34.65;103230.31;3123570;27;115953;-57
2021/03/06 06:01:55;;;;;;;;;;;;;;;19.12;34.82;103235.06;3111108;28;116246;-58
2021/03/06 06:03:29;;;;;;;;;;;;;;;19.12;34.64;103226.66;3117744;27;115872;-57
2021/03/06 06:05:01;;;;;;;;;;;;;;;19.08;34.84;103227.13;3125423;27;116354;-58
2021/03/06 06:06:33;;;;;;;;;;;;;;;19.08;34.67;103234.66;3121810;27;113851;-57
2021/03/06 06:08:05;;;;;;;;;;;;;;;19.07;34.74;103231.03;3111623;28;113892;-58
2021/03/06 06:09:37;;;;;;;;;;;;;;;19.06;34.79;103234.06;3118886;27;114150;-57
2021/03/06 06:11:09;;;;;;;;;;;;;;;19.06;34.70;103232.13;3098368;28;113936;-58
2021/03/06 06:12:43;;;;;;;;;;;;;;;19.04;34.72;103234.31;3116729;27;113767;-58
2021/03/06 06:14:14;;;;;;;;;;;;;;;19.03;34.75;103231.78;3123689;27;113680;-57
2021/03/06 06:15:46;;;;;;;;;;;;;;;19.04;34.94;103234.31;3121903;27;113779;-58
2021/03/06 06:17:22;;;;;;;;;;;;;;;19.02;34.84;103235.66;3123033;27;113776;-58
2021/03/06 06:18:54;;;;;;;;;;;;;;;19.01;34.77;103234.81;3123976;27;113876;-57
2021/03/06 06:20:26;;;;;;;;;;;;;;;19.00;34.74;103238.69;3108423;27;113829;-57
2021/03/06 06:21:59;;;;;;;;;;;;;;;19.03;34.80;103231.78;3112648;27;113698;-57
2021/03/06 06:23:30;;;;;;;;;;;;;;;18.99;34.78;103238.91;3125413;27;114082;-58
2021/03/06 06:25:01;;;;;;;;;;;;;;;18.97;34.78;103233.59;3123683;27;113708;-58
2021/03/06 06:26:33;;;;;;;;;;;;;;;18.96;34.79;103231.88;3124604;27;113847;-58
2021/03/06 06:28:07;;;;;;;;;;;;;;;18.95;35.01;103232.09;3115166;28;113623;-57
2021/03/06 06:29:41;;;;;;;;;;;;;;;18.94;34.84;103230.41;3107380;28;115200;-57
2021/03/06 06:31:13;;;;;;;;;;;;;;;18.93;34.81;103232.38;3114459;27;115236;-57
2021/03/06 06:32:46;;;;;;;;;;;;;;;18.93;34.90;103235.16;3118681;27;115780;-57
2021/03/06 06:34:18;;;;;;;;;;;;;;;18.92;34.98;103238.19;3106333;28;115450;-57
2021/03/06 06:35:49;;;;;;;;;;;;;;;18.93;34.92;103235.16;3116029;27;115476;-56
2021/03/06 06:37:23;;;;;;;;;;;;;;;18.96;34.99;103231.00;3109480;27;115993;-57
2021/03/06 06:38:54;;;;;;;;;;;;;;;18.97;35.05;103224.31;3120165;27;115234;-57
2021/03/06 06:40:27;;;;;;;;;;;;;;;18.98;35.05;103226.91;3100952;28;115324;-58
2021/03/06 06:42:00;;;;;;;;;;;;;;;19.01;35.14;103231.16;3117934;27;115199;-57
2021/03/06 06:43:31;;;;;;;;;;;;;;;19.01;35.03;103226.41;3107304;28;115158;-57
2021/03/06 06:45:04;;;;;;;;;;;;;;;19.02;35.06;103227.25;3118217;27;115120;-57
2021/03/06 06:46:35;;;;;;;;;;;;;;;19.01;35.11;103229.19;3123971;27;114942;-57
2021/03/06 06:48:09;;;;;;;;;;;;;;;19.01;35.14;103232.00;3123157;27;115894;-58
2021/03/06 06:49:46;;;;;;;;;;;;;;;19.02;35.08;103241.25;3111131;28;116159;-58
2021/03/06 06:51:17;;;;;;;;;;;;;;;19.05;35.09;103238.81;3119893;27;115984;-58
2021/03/06 06:52:49;;;;;;;;;;;;;;;19.08;35.00;103241.13;3124351;27;115834;-57
2021/03/06 06:54:25;;;;;;;;;;;;;;;19.10;34.94;103238.94;3111933;27;115760;-58
2021/03/06 06:55:57;;;;;;;;;;;;;;;19.13;35.01;103236.75;3120091;27;115754;-58
2021/03/06 06:57:49;;;;;;;;;;;;;;;19.14;35.13;103244.91;3122180;27;114790;-57
2021/03/06 06:59:20;;;;;;;;;;;;;;;19.16;35.10;103242.72;3120221;27;115790;-57
2021/03/06 07:00:52;;;;;;;;;;;;;;;19.20;35.14;103245.91;3121654;27;115575;-57
2021/03/06 07:02:25;;;;;;;;;;;;;;;19.22;35.32;103243.69;3120346;27;115832;-57
2021/03/06 07:03:59;;;;;;;;;;;;;;;19.26;36.33;103237.34;3104895;28;116600;-58
2021/03/06 07:05:32;;;;;;;;;;;;;;;19.32;35.57;103246.75;3114725;27;115752;-58
2021/03/06 07:07:03;;;;;;;;;;;;;;;19.34;35.67;103242.63;3100904;28;114487;-57
2021/03/06 07:08:36;;;;;;;;;;;;;;;19.36;35.70;103242.34;3119626;27;115881;-58
2021/03/06 07:10:10;;;;;;;;;;;;;;;19.40;36.21;103243.56;3121925;27;116292;-57
2021/03/06 07:11:42;;;;;;;;;;;;;;;19.43;36.27;103245.91;3126816;27;115945;-57
2021/03/06 07:13:15;;;;;;;;;;;;;;;19.47;35.81;103247.13;3117235;27;113860;-57
2021/03/06 07:14:47;;;;;;;;;;;;;;;19.51;36.06;103249.19;3105488;28;114001;-58
2021/03/06 07:16:20;;;;;;;;;;;;;;;19.56;35.88;103244.81;3120074;27;113736;-58
2021/03/06 07:17:54;;;;;;;;;;;;;;;19.59;35.76;103253.56;3124591;27;113916;-58
2021/03/06 07:19:28;;;;;;;;;;;;;;;19.64;35.64;103250.03;3106451;28;114175;-58
2021/03/06 07:20:59;;;;;;;;;;;;;;;19.69;35.56;103252.94;3118481;27;113748;-58
2021/03/06 07:22:31;;;;;;;;;;;;;;;19.73;35.94;103257.81;3109718;28;113800;-59
2021/03/06 07:24:03;;;;;;;;;;;;;;;19.78;35.65;103254.28;3100280;28;114121;-59
2021/03/06 07:25:34;;;;;;;;;;;;;;;19.81;35.91;103263.03;3106625;28;113795;-58
2021/03/06 07:27:06;;;;;;;;;;;;;;;19.85;35.53;103261.44;3119453;27;114019;-58
2021/03/06 07:28:38;;;;;;;;;;;;;;;19.91;35.65;103254.00;3121757;27;113804;-59
2021/03/06 07:30:11;;;;;;;;;;;;;;;19.94;35.56;103264.75;3121768;27;113911;-58
2021/03/06 07:31:43;;;;;;;;;;;;;;;19.99;35.50;103264.81;3090505;28;115427;-58
2021/03/06 07:33:16;;;;;;;;;;;;;;;20.02;35.50;103261.53;3105071;28;114356;-59
2021/03/06 07:34:49;;;;;;;;;;;;;;;20.07;35.39;103260.78;3119291;27;115224;-58
2021/03/06 07:36:20;;;;;;;;;;;;;;;20.12;35.32;103260.91;3109647;28;115213;-58
2021/03/06 07:37:54;;;;;;;;;;;;;;;20.15;35.34;103266.88;3115595;27;115153;-58
2021/03/06 07:39:26;;;;;;;;;;;;;;;20.19;35.26;103258.78;3111902;27;115985;-58
2021/03/06 07:41:00;;;;;;;;;;;;;;;20.22;35.16;103259.13;3116777;27;115892;-59
2021/03/06 07:42:34;;;;;;;;;;;;;;;20.26;35.30;103265.94;3114726;27;114580;-58
2021/03/06 07:44:07;;;;;;;;;;;;;;;20.30;35.44;103260.75;3123325;27;115281;-58
2021/03/06 07:45:40;;;;;;;;;;;;;;;20.35;35.42;103269.28;3115456;27;115095;-58
2021/03/06 07:47:14;;;;;;;;;;;;;;;20.38;35.04;103260.34;3123152;27;115050;-57
2021/03/06 07:48:49;;;;;;;;;;;;;;;20.42;35.13;103262.38;3123584;27;115214;-58
2021/03/06 07:50:24;;;;;;;;;;;;;;;20.46;35.24;103259.06;3124393;27;115058;-58
2021/03/06 07:51:57;;;;;;;;;;;;;;;20.50;34.89;103263.06;3109627;28;114284;-58
2021/03/06 07:53:28;;;;;;;;;;;;;;;20.53;34.88;103262.59;3118701;27;115099;-58